sensor_id;sensor_type;location;lat;lon;timestamp;pressure;altitude;pressure_sealevel;temperature;humidity
34983;BME280;21187;50.976;13.720;2023-04-27T00:02:15;98474.78;;;7.62;41.27
34983;BME280;21187;50.976;13.720;2023-04-27T00:07:17;98468.91;;;7.60;41.07
34983;BME280;21187;50.976;13.720;2023-04-27T00:12:19;98461.47;;;7.57;40.91
34983;BME280;21187;50.976;13.720;2023-04-27T00:17:21;98459.88;;;7.56;40.87
34983;BME280;21187;50.976;13.720;2023-04-27T00:22:23;98458.00;;;7.47;41.22
34983;BME280;21187;50.976;13.720;2023-04-27T00:27:25;98458.00;;;7.47;41.18
34983;BME280;21187;50.976;13.720;2023-04-27T00:32:26;98453.28;;;7.44;41.00
34983;BME280;21187;50.976;13.720;2023-04-27T00:37:28;98465.00;;;7.31;41.50
34983;BME280;21187;50.976;13.720;2023-04-27T00:42:30;98456.81;;;7.19;41.79
34983;BME280;21187;50.976;13.720;2023-04-27T00:47:32;98460.81;;;7.04;42.56
34983;BME280;21187;50.976;13.720;2023-04-27T00:52:36;98462.84;;;6.98;42.42
34983;BME280;21187;50.976;13.720;2023-04-27T00:57:38;98471.41;;;7.00;42.09
34983;BME280;21187;50.976;13.720;2023-04-27T01:02:40;98471.69;;;7.07;41.88
34983;BME280;21187;50.976;13.720;2023-04-27T01:07:43;98469.34;;;7.06;42.07
34983;BME280;21187;50.976;13.720;2023-04-27T01:12:44;98474.88;;;7.09;42.03
34983;BME280;21187;50.976;13.720;2023-04-27T01:17:46;98480.28;;;7.09;41.83
34983;BME280;21187;50.976;13.720;2023-04-27T01:22:49;98479.16;;;7.10;41.98
34983;BME280;21187;50.976;13.720;2023-04-27T01:27:51;98487.25;;;7.10;42.11
34983;BME280;21187;50.976;13.720;2023-04-27T01:32:52;98486.75;;;7.08;41.83
34983;BME280;21187;50.976;13.720;2023-04-27T01:37:55;98470.16;;;7.06;42.24
34983;BME280;21187;50.976;13.720;2023-04-27T01:42:57;98480.91;;;7.06;41.85
34983;BME280;21187;50.976;13.720;2023-04-27T01:48:01;98483.78;;;7.01;41.90
34983;BME280;21187;50.976;13.720;2023-04-27T01:53:05;98490.59;;;6.98;41.86
34983;BME280;21187;50.976;13.720;2023-04-27T01:58:07;98496.59;;;6.95;41.93
34983;BME280;21187;50.976;13.720;2023-04-27T02:03:09;98490.25;;;6.91;41.92
34983;BME280;21187;50.976;13.720;2023-04-27T02:08:11;98495.78;;;6.86;42.06
34983;BME280;21187;50.976;13.720;2023-04-27T02:13:13;98496.13;;;6.85;42.08
34983;BME280;21187;50.976;13.720;2023-04-27T02:18:15;98498.34;;;6.82;42.47
34983;BME280;21187;50.976;13.720;2023-04-27T02:23:17;98499.59;;;6.76;42.34
34983;BME280;21187;50.976;13.720;2023-04-27T02:28:19;98503.09;;;6.68;42.66
34983;BME280;21187;50.976;13.720;2023-04-27T02:33:22;98501.97;;;6.69;42.51
34983;BME280;21187;50.976;13.720;2023-04-27T02:38:24;98508.28;;;6.64;42.36
34983;BME280;21187;50.976;13.720;2023-04-27T02:43:26;98501.00;;;6.65;42.34
34983;BME280;21187;50.976;13.720;2023-04-27T02:48:29;98498.94;;;6.62;42.51
34983;BME280;21187;50.976;13.720;2023-04-27T02:53:32;98504.16;;;6.58;42.75
34983;BME280;21187;50.976;13.720;2023-04-27T02:58:33;98499.88;;;6.48;43.06
34983;BME280;21187;50.976;13.720;2023-04-27T03:03:35;98498.94;;;6.44;43.14
34983;BME280;21187;50.976;13.720;2023-04-27T03:08:37;98499.88;;;6.40;43.34
34983;BME280;21187;50.976;13.720;2023-04-27T03:13:39;98503.66;;;6.30;43.72
34983;BME280;21187;50.976;13.720;2023-04-27T03:18:44;98500.63;;;6.23;43.47
34983;BME280;21187;50.976;13.720;2023-04-27T03:23:46;98517.53;;;6.14;43.74
34983;BME280;21187;50.976;13.720;2023-04-27T03:28:47;98519.25;;;6.10;44.13
34983;BME280;21187;50.976;13.720;2023-04-27T03:33:49;98530.00;;;6.10;43.98
34983;BME280;21187;50.976;13.720;2023-04-27T03:38:51;98534.28;;;6.11;44.44
34983;BME280;21187;50.976;13.720;2023-04-27T03:43:53;98539.66;;;6.11;43.93
34983;BME280;21187;50.976;13.720;2023-04-27T03:48:55;98547.25;;;6.09;44.34
34983;BME280;21187;50.976;13.720;2023-04-27T03:53:58;98543.75;;;6.09;44.21
34983;BME280;21187;50.976;13.720;2023-04-27T03:59:05;98545.19;;;6.06;44.04
34983;BME280;21187;50.976;13.720;2023-04-27T04:04:10;98547.09;;;6.14;43.86
34983;BME280;21187;50.976;13.720;2023-04-27T04:09:12;98551.84;;;6.18;43.94
34983;BME280;21187;50.976;13.720;2023-04-27T04:14:14;98563.59;;;6.22;44.11
34983;BME280;21187;50.976;13.720;2023-04-27T04:19:16;98559.59;;;6.10;44.37
34983;BME280;21187;50.976;13.720;2023-04-27T04:24:20;98568.56;;;6.06;44.29
34983;BME280;21187;50.976;13.720;2023-04-27T04:29:22;98562.41;;;6.05;44.49
34983;BME280;21187;50.976;13.720;2023-04-27T04:34:24;98566.09;;;6.18;44.67
34983;BME280;21187;50.976;13.720;2023-04-27T04:39:30;98563.09;;;6.20;44.52
34983;BME280;21187;50.976;13.720;2023-04-27T04:44:33;98574.94;;;6.19;44.63
34983;BME280;21187;50.976;13.720;2023-04-27T04:49:36;98576.88;;;6.18;44.84
34983;BME280;21187;50.976;13.720;2023-04-27T04:54:39;98583.53;;;6.29;44.79
34983;BME280;21187;50.976;13.720;2023-04-27T04:59:40;98583.13;;;6.45;44.54
34983;BME280;21187;50.976;13.720;2023-04-27T05:04:42;98582.88;;;6.64;44.39
34983;BME280;21187;50.976;13.720;2023-04-27T05:09:44;98595.25;;;6.82;44.20
34983;BME280;21187;50.976;13.720;2023-04-27T05:14:46;98590.19;;;6.90;43.97
34983;BME280;21187;50.976;13.720;2023-04-27T05:19:49;98588.13;;;6.95;43.92
34983;BME280;21187;50.976;13.720;2023-04-27T05:24:50;98596.72;;;7.06;44.04
34983;BME280;21187;50.976;13.720;2023-04-27T05:29:52;98596.09;;;7.18;43.63
34983;BME280;21187;50.976;13.720;2023-04-27T05:34:54;98585.47;;;7.30;43.63
34983;BME280;21187;50.976;13.720;2023-04-27T05:39:56;98590.38;;;7.46;43.64
34983;BME280;21187;50.976;13.720;2023-04-27T05:44:58;98591.78;;;7.61;43.44
34983;BME280;21187;50.976;13.720;2023-04-27T05:49:59;98592.56;;;7.79;43.19
34983;BME280;21187;50.976;13.720;2023-04-27T05:55:01;98584.25;;;7.93;42.89
34983;BME280;21187;50.976;13.720;2023-04-27T06:00:04;98583.56;;;8.13;42.92
34983;BME280;21187;50.976;13.720;2023-04-27T06:05:14;98589.63;;;8.40;42.64
34983;BME280;21187;50.976;13.720;2023-04-27T06:10:16;98581.25;;;8.72;42.26
34983;BME280;21187;50.976;13.720;2023-04-27T06:15:18;98583.66;;;8.94;42.05
34983;BME280;21187;50.976;13.720;2023-04-27T06:20:20;98586.44;;;9.07;41.46
34983;BME280;21187;50.976;13.720;2023-04-27T06:25:22;98591.13;;;9.19;41.68
34983;BME280;21187;50.976;13.720;2023-04-27T06:30:27;98589.78;;;9.25;41.13
34983;BME280;21187;50.976;13.720;2023-04-27T06:35:29;98602.69;;;9.40;41.43
34983;BME280;21187;50.976;13.720;2023-04-27T06:40:32;98604.72;;;9.43;41.74
34983;BME280;21187;50.976;13.720;2023-04-27T06:45:33;98605.44;;;9.53;41.67
34983;BME280;21187;50.976;13.720;2023-04-27T06:50:36;98604.63;;;9.73;41.05
34983;BME280;21187;50.976;13.720;2023-04-27T06:55:38;98593.88;;;9.98;40.95
34983;BME280;21187;50.976;13.720;2023-04-27T07:00:44;98604.44;;;10.24;40.76
34983;BME280;21187;50.976;13.720;2023-04-27T07:05:47;98604.13;;;10.38;40.14
34983;BME280;21187;50.976;13.720;2023-04-27T07:10:49;98605.50;;;10.69;40.24
34983;BME280;21187;50.976;13.720;2023-04-27T07:15:54;98606.13;;;10.91;39.58
34983;BME280;21187;50.976;13.720;2023-04-27T07:21:02;98597.25;;;11.19;39.33
34983;BME280;21187;50.976;13.720;2023-04-27T07:26:09;98607.50;;;11.38;39.08
34983;BME280;21187;50.976;13.720;2023-04-27T07:31:11;98610.06;;;11.46;39.09
34983;BME280;21187;50.976;13.720;2023-04-27T07:36:13;98609.09;;;11.67;38.59
34983;BME280;21187;50.976;13.720;2023-04-27T07:41:15;98611.72;;;11.79;38.05
34983;BME280;21187;50.976;13.720;2023-04-27T07:46:17;98614.81;;;12.06;38.15
34983;BME280;21187;50.976;13.720;2023-04-27T07:51:19;98615.50;;;12.35;37.85
34983;BME280;21187;50.976;13.720;2023-04-27T07:56:23;98612.19;;;12.58;37.45
34983;BME280;21187;50.976;13.720;2023-04-27T08:01:27;98619.69;;;12.80;37.20
34983;BME280;21187;50.976;13.720;2023-04-27T08:06:34;98623.88;;;12.94;36.71
34983;BME280;21187;50.976;13.720;2023-04-27T08:11:37;98628.34;;;13.22;36.21
34983;BME280;21187;50.976;13.720;2023-04-27T08:16:43;98629.75;;;13.51;36.33
34983;BME280;21187;50.976;13.720;2023-04-27T08:21:46;98627.31;;;13.46;35.70
34983;BME280;21187;50.976;13.720;2023-04-27T08:26:56;98629.56;;;13.40;35.83
34983;BME280;21187;50.976;13.720;2023-04-27T08:32:00;98618.50;;;13.33;35.46
34983;BME280;21187;50.976;13.720;2023-04-27T08:37:03;98628.03;;;13.43;35.09
34983;BME280;21187;50.976;13.720;2023-04-27T08:42:12;98627.06;;;13.35;33.71
34983;BME280;21187;50.976;13.720;2023-04-27T08:47:14;98630.56;;;13.16;34.40
34983;BME280;21187;50.976;13.720;2023-04-27T08:52:16;98626.63;;;13.13;34.10
34983;BME280;21187;50.976;13.720;2023-04-27T08:57:18;98620.38;;;13.29;34.18
34983;BME280;21187;50.976;13.720;2023-04-27T09:02:20;98621.63;;;13.35;34.11
34983;BME280;21187;50.976;13.720;2023-04-27T09:07:22;98622.19;;;13.25;33.05
34983;BME280;21187;50.976;13.720;2023-04-27T09:12:24;98622.50;;;13.20;33.20
34983;BME280;21187;50.976;13.720;2023-04-27T09:17:27;98616.75;;;13.25;33.39
34983;BME280;21187;50.976;13.720;2023-04-27T09:22:29;98627.34;;;13.30;32.98
34983;BME280;21187;50.976;13.720;2023-04-27T09:27:31;98624.63;;;13.30;32.65
34983;BME280;21187;50.976;13.720;2023-04-27T09:32:33;98623.69;;;13.22;32.10
34983;BME280;21187;50.976;13.720;2023-04-27T09:37:35;98616.69;;;13.21;32.18
34983;BME280;21187;50.976;13.720;2023-04-27T09:42:37;98610.09;;;13.38;31.64
34983;BME280;21187;50.976;13.720;2023-04-27T09:47:39;98605.72;;;13.53;31.94
34983;BME280;21187;50.976;13.720;2023-04-27T09:52:42;98600.34;;;13.57;31.46
34983;BME280;21187;50.976;13.720;2023-04-27T09:58:03;98606.78;;;13.68;31.62
34983;BME280;21187;50.976;13.720;2023-04-27T10:03:22;98591.75;;;13.55;31.80
34983;BME280;21187;50.976;13.720;2023-04-27T10:08:33;98588.75;;;13.40;31.63
34983;BME280;21187;50.976;13.720;2023-04-27T10:13:35;98595.56;;;13.50;31.42
34983;BME280;21187;50.976;13.720;2023-04-27T10:18:37;98599.75;;;13.67;31.41
34983;BME280;21187;50.976;13.720;2023-04-27T10:23:48;98597.53;;;13.73;31.72
34983;BME280;21187;50.976;13.720;2023-04-27T10:28:58;98597.47;;;13.69;31.65
34983;BME280;21187;50.976;13.720;2023-04-27T10:34:08;98605.34;;;13.55;31.52
34983;BME280;21187;50.976;13.720;2023-04-27T10:39:17;98598.47;;;13.41;31.03
34983;BME280;21187;50.976;13.720;2023-04-27T10:44:28;98607.94;;;13.47;31.40
34983;BME280;21187;50.976;13.720;2023-04-27T10:49:30;98601.19;;;13.41;31.49
34983;BME280;21187;50.976;13.720;2023-04-27T10:54:32;98606.44;;;13.50;31.67
34983;BME280;21187;50.976;13.720;2023-04-27T10:59:46;98593.03;;;13.41;31.14
34983;BME280;21187;50.976;13.720;2023-04-27T11:04:48;98595.00;;;13.41;31.41
34983;BME280;21187;50.976;13.720;2023-04-27T11:09:50;98600.56;;;13.68;31.06
34983;BME280;21187;50.976;13.720;2023-04-27T11:14:57;98588.28;;;13.77;31.08
34983;BME280;21187;50.976;13.720;2023-04-27T11:19:59;98587.31;;;13.66;30.84
34983;BME280;21187;50.976;13.720;2023-04-27T11:25:01;98595.09;;;13.68;31.22
34983;BME280;21187;50.976;13.720;2023-04-27T11:30:05;98594.72;;;13.89;31.35
34983;BME280;21187;50.976;13.720;2023-04-27T11:35:10;98602.19;;;14.15;31.09
34983;BME280;21187;50.976;13.720;2023-04-27T11:40:13;98594.41;;;14.17;30.62
34983;BME280;21187;50.976;13.720;2023-04-27T11:45:18;98594.50;;;14.21;30.79
34983;BME280;21187;50.976;13.720;2023-04-27T11:50:26;98604.41;;;14.32;30.47
34983;BME280;21187;50.976;13.720;2023-04-27T11:55:28;98601.75;;;14.36;30.61
34983;BME280;21187;50.976;13.720;2023-04-27T12:00:32;98608.06;;;14.40;30.43
34983;BME280;21187;50.976;13.720;2023-04-27T12:05:34;98600.19;;;14.35;30.06
34983;BME280;21187;50.976;13.720;2023-04-27T12:10:39;98613.44;;;14.60;30.48
34983;BME280;21187;50.976;13.720;2023-04-27T12:15:44;98611.03;;;14.81;30.50
34983;BME280;21187;50.976;13.720;2023-04-27T12:20:47;98600.66;;;14.91;30.00
34983;BME280;21187;50.976;13.720;2023-04-27T12:25:50;98608.56;;;15.00;29.75
34983;BME280;21187;50.976;13.720;2023-04-27T12:30:52;98615.88;;;14.92;30.20
34983;BME280;21187;50.976;13.720;2023-04-27T12:35:54;98604.88;;;14.85;30.37
34983;BME280;21187;50.976;13.720;2023-04-27T12:40:58;98604.13;;;14.88;30.10
34983;BME280;21187;50.976;13.720;2023-04-27T12:46:02;98612.63;;;14.83;30.03
34983;BME280;21187;50.976;13.720;2023-04-27T12:51:04;98595.00;;;15.03;30.12
34983;BME280;21187;50.976;13.720;2023-04-27T12:56:07;98598.44;;;15.27;30.07
34983;BME280;21187;50.976;13.720;2023-04-27T13:01:09;98602.66;;;15.55;29.92
34983;BME280;21187;50.976;13.720;2023-04-27T13:06:15;98593.88;;;15.72;29.87
34983;BME280;21187;50.976;13.720;2023-04-27T13:11:17;98599.84;;;15.82;28.98
34983;BME280;21187;50.976;13.720;2023-04-27T13:16:19;98587.97;;;15.67;29.34
34983;BME280;21187;50.976;13.720;2023-04-27T13:21:23;98592.44;;;15.82;28.99
34983;BME280;21187;50.976;13.720;2023-04-27T13:26:25;98592.91;;;15.88;29.29
34983;BME280;21187;50.976;13.720;2023-04-27T13:31:27;98598.56;;;16.09;29.08
34983;BME280;21187;50.976;13.720;2023-04-27T13:36:29;98585.28;;;16.08;29.41
34983;BME280;21187;50.976;13.720;2023-04-27T13:41:32;98584.03;;;16.02;29.21
34983;BME280;21187;50.976;13.720;2023-04-27T13:46:35;98582.59;;;16.15;29.13
34983;BME280;21187;50.976;13.720;2023-04-27T13:51:37;98582.38;;;15.90;28.83
34983;BME280;21187;50.976;13.720;2023-04-27T13:56:40;98582.03;;;15.95;28.92
34983;BME280;21187;50.976;13.720;2023-04-27T14:01:42;98570.66;;;15.89;28.73
34983;BME280;21187;50.976;13.720;2023-04-27T14:06:44;98570.44;;;15.71;28.66
34983;BME280;21187;50.976;13.720;2023-04-27T14:11:46;98571.59;;;15.70;28.87
34983;BME280;21187;50.976;13.720;2023-04-27T14:16:57;98571.06;;;15.88;28.71
34983;BME280;21187;50.976;13.720;2023-04-27T14:21:59;98563.19;;;15.83;28.92
34983;BME280;21187;50.976;13.720;2023-04-27T14:27:02;98555.59;;;15.69;28.96
34983;BME280;21187;50.976;13.720;2023-04-27T14:32:04;98559.19;;;15.76;29.06
34983;BME280;21187;50.976;13.720;2023-04-27T14:37:06;98555.66;;;15.72;29.03
34983;BME280;21187;50.976;13.720;2023-04-27T14:42:08;98558.75;;;15.71;29.16
34983;BME280;21187;50.976;13.720;2023-04-27T14:47:10;98564.50;;;15.62;29.38
34983;BME280;21187;50.976;13.720;2023-04-27T14:52:12;98556.66;;;15.57;29.27
34983;BME280;21187;50.976;13.720;2023-04-27T14:57:14;98559.63;;;15.44;29.41
34983;BME280;21187;50.976;13.720;2023-04-27T15:02:16;98565.91;;;15.48;29.36
34983;BME280;21187;50.976;13.720;2023-04-27T15:07:19;98564.38;;;15.51;29.30
34983;BME280;21187;50.976;13.720;2023-04-27T15:12:22;98564.38;;;15.51;29.66
34983;BME280;21187;50.976;13.720;2023-04-27T15:17:24;98566.34;;;15.51;29.81
34983;BME280;21187;50.976;13.720;2023-04-27T15:22:26;98578.16;;;15.28;29.50
34983;BME280;21187;50.976;13.720;2023-04-27T15:27:29;98571.88;;;15.24;29.61
34983;BME280;21187;50.976;13.720;2023-04-27T15:32:31;98563.34;;;15.29;29.66
34983;BME280;21187;50.976;13.720;2023-04-27T15:37:34;98565.69;;;15.27;29.99
34983;BME280;21187;50.976;13.720;2023-04-27T15:42:37;98576.00;;;15.10;29.80
34983;BME280;21187;50.976;13.720;2023-04-27T15:47:38;98569.44;;;14.85;29.72
34983;BME280;21187;50.976;13.720;2023-04-27T15:52:41;98558.50;;;14.85;30.04
34983;BME280;21187;50.976;13.720;2023-04-27T15:57:42;98562.91;;;14.93;29.78
34983;BME280;21187;50.976;13.720;2023-04-27T16:02:44;98548.53;;;14.96;30.05
34983;BME280;21187;50.976;13.720;2023-04-27T16:07:47;98542.31;;;14.99;29.95
34983;BME280;21187;50.976;13.720;2023-04-27T16:12:49;98541.09;;;14.93;29.97
34983;BME280;21187;50.976;13.720;2023-04-27T16:17:50;98536.34;;;14.90;30.05
34983;BME280;21187;50.976;13.720;2023-04-27T16:22:52;98520.00;;;14.90;29.80
34983;BME280;21187;50.976;13.720;2023-04-27T16:27:57;98523.16;;;14.92;29.99
34983;BME280;21187;50.976;13.720;2023-04-27T16:32:59;98523.09;;;14.88;29.78
34983;BME280;21187;50.976;13.720;2023-04-27T16:38:01;98526.94;;;14.84;30.15
34983;BME280;21187;50.976;13.720;2023-04-27T16:43:03;98527.66;;;14.80;30.15
34983;BME280;21187;50.976;13.720;2023-04-27T16:48:05;98531.13;;;14.77;29.81
34983;BME280;21187;50.976;13.720;2023-04-27T16:53:09;98526.38;;;14.71;30.05
34983;BME280;21187;50.976;13.720;2023-04-27T16:58:12;98529.78;;;14.64;30.19
34983;BME280;21187;50.976;13.720;2023-04-27T17:03:14;98531.22;;;14.58;30.09
34983;BME280;21187;50.976;13.720;2023-04-27T17:08:16;98533.53;;;14.56;30.16
34983;BME280;21187;50.976;13.720;2023-04-27T17:13:18;98537.28;;;14.47;30.18
34983;BME280;21187;50.976;13.720;2023-04-27T17:18:20;98539.94;;;14.40;30.37
34983;BME280;21187;50.976;13.720;2023-04-27T17:23:22;98544.91;;;14.35;30.77
34983;BME280;21187;50.976;13.720;2023-04-27T17:28:24;98546.47;;;14.36;30.66
34983;BME280;21187;50.976;13.720;2023-04-27T17:33:26;98546.38;;;14.28;30.63
34983;BME280;21187;50.976;13.720;2023-04-27T17:38:28;98546.19;;;14.18;30.71
34983;BME280;21187;50.976;13.720;2023-04-27T17:43:29;98546.88;;;14.11;30.73
34983;BME280;21187;50.976;13.720;2023-04-27T17:48:31;98546.03;;;14.07;30.98
34983;BME280;21187;50.976;13.720;2023-04-27T17:53:33;98564.22;;;14.03;31.10
34983;BME280;21187;50.976;13.720;2023-04-27T17:58:35;98557.88;;;13.95;30.89
34983;BME280;21187;50.976;13.720;2023-04-27T18:03:38;98561.25;;;13.88;30.94
34983;BME280;21187;50.976;13.720;2023-04-27T18:08:40;98563.41;;;13.79;31.33
34983;BME280;21187;50.976;13.720;2023-04-27T18:13:42;98564.44;;;13.71;31.15
34983;BME280;21187;50.976;13.720;2023-04-27T18:18:44;98567.41;;;13.62;31.58
34983;BME280;21187;50.976;13.720;2023-04-27T18:23:45;98576.56;;;13.54;31.79
34983;BME280;21187;50.976;13.720;2023-04-27T18:28:47;98582.88;;;13.38;32.11
34983;BME280;21187;50.976;13.720;2023-04-27T18:33:49;98583.25;;;13.21;32.17
34983;BME280;21187;50.976;13.720;2023-04-27T18:38:52;98579.03;;;13.04;32.53
34983;BME280;21187;50.976;13.720;2023-04-27T18:44:01;98593.59;;;12.95;32.61
34983;BME280;21187;50.976;13.720;2023-04-27T18:49:03;98601.88;;;12.83;32.76
34983;BME280;21187;50.976;13.720;2023-04-27T18:54:05;98595.50;;;12.75;32.72
34983;BME280;21187;50.976;13.720;2023-04-27T18:59:07;98602.34;;;12.69;32.97
34983;BME280;21187;50.976;13.720;2023-04-27T19:04:09;98606.19;;;12.68;32.97
34983;BME280;21187;50.976;13.720;2023-04-27T19:09:11;98619.34;;;12.66;32.77
34983;BME280;21187;50.976;13.720;2023-04-27T19:14:14;98617.88;;;12.53;33.13
34983;BME280;21187;50.976;13.720;2023-04-27T19:19:16;98626.56;;;12.42;33.37
34983;BME280;21187;50.976;13.720;2023-04-27T19:24:18;98617.09;;;12.36;33.37
34983;BME280;21187;50.976;13.720;2023-04-27T19:29:22;98620.66;;;12.24;33.25
34983;BME280;21187;50.976;13.720;2023-04-27T19:34:24;98623.38;;;12.08;34.01
34983;BME280;21187;50.976;13.720;2023-04-27T19:39:27;98618.91;;;12.00;34.27
34983;BME280;21187;50.976;13.720;2023-04-27T19:44:29;98618.25;;;11.91;34.26
34983;BME280;21187;50.976;13.720;2023-04-27T19:49:32;98609.09;;;11.67;34.61
34983;BME280;21187;50.976;13.720;2023-04-27T19:54:34;98604.34;;;11.36;35.04
34983;BME280;21187;50.976;13.720;2023-04-27T19:59:39;98602.44;;;11.24;35.59
34983;BME280;21187;50.976;13.720;2023-04-27T20:04:41;98597.72;;;11.21;35.68
34983;BME280;21187;50.976;13.720;2023-04-27T20:09:43;98591.72;;;11.27;35.19
34983;BME280;21187;50.976;13.720;2023-04-27T20:14:45;98594.97;;;11.33;35.00
34983;BME280;21187;50.976;13.720;2023-04-27T20:19:47;98596.56;;;11.34;35.01
34983;BME280;21187;50.976;13.720;2023-04-27T20:24:50;98602.31;;;11.32;35.38
34983;BME280;21187;50.976;13.720;2023-04-27T20:29:52;98594.09;;;11.29;35.42
34983;BME280;21187;50.976;13.720;2023-04-27T20:34:54;98592.84;;;11.26;35.12
34983;BME280;21187;50.976;13.720;2023-04-27T20:39:55;98590.72;;;11.20;35.40
34983;BME280;21187;50.976;13.720;2023-04-27T20:44:58;98588.94;;;11.11;35.84
34983;BME280;21187;50.976;13.720;2023-04-27T20:50:00;98594.84;;;11.01;35.54
34983;BME280;21187;50.976;13.720;2023-04-27T20:55:03;98583.09;;;10.85;35.66
34983;BME280;21187;50.976;13.720;2023-04-27T21:00:06;98585.16;;;10.75;36.31
34983;BME280;21187;50.976;13.720;2023-04-27T21:05:10;98584.69;;;10.61;36.42
34983;BME280;21187;50.976;13.720;2023-04-27T21:10:12;98584.28;;;10.59;36.33
34983;BME280;21187;50.976;13.720;2023-04-27T21:15:14;98575.59;;;10.53;36.78
34983;BME280;21187;50.976;13.720;2023-04-27T21:20:16;98572.53;;;10.42;36.86
34983;BME280;21187;50.976;13.720;2023-04-27T21:25:18;98564.38;;;10.30;36.64
34983;BME280;21187;50.976;13.720;2023-04-27T21:30:22;98551.50;;;10.14;37.30
34983;BME280;21187;50.976;13.720;2023-04-27T21:35:24;98557.59;;;9.99;37.86
34983;BME280;21187;50.976;13.720;2023-04-27T21:40:26;98551.94;;;9.92;37.48
34983;BME280;21187;50.976;13.720;2023-04-27T21:45:28;98557.13;;;9.85;38.00
34983;BME280;21187;50.976;13.720;2023-04-27T21:50:30;98557.88;;;9.73;37.79
34983;BME280;21187;50.976;13.720;2023-04-27T21:55:32;98557.97;;;9.64;38.21
34983;BME280;21187;50.976;13.720;2023-04-27T22:00:34;98565.88;;;9.69;37.80
34983;BME280;21187;50.976;13.720;2023-04-27T22:05:35;98545.56;;;9.63;37.97
34983;BME280;21187;50.976;13.720;2023-04-27T22:10:37;98546.22;;;9.60;38.18
34983;BME280;21187;50.976;13.720;2023-04-27T22:15:39;98551.16;;;9.58;38.08
34983;BME280;21187;50.976;13.720;2023-04-27T22:20:42;98549.00;;;9.51;38.32
34983;BME280;21187;50.976;13.720;2023-04-27T22:25:44;98552.97;;;9.54;38.01
34983;BME280;21187;50.976;13.720;2023-04-27T22:30:46;98553.88;;;9.58;38.05
34983;BME280;21187;50.976;13.720;2023-04-27T22:35:48;98560.19;;;9.62;38.32
34983;BME280;21187;50.976;13.720;2023-04-27T22:40:50;98556.13;;;9.56;38.50
34983;BME280;21187;50.976;13.720;2023-04-27T22:45:52;98550.47;;;9.48;38.01
34983;BME280;21187;50.976;13.720;2023-04-27T22:50:53;98562.34;;;9.35;38.33
34983;BME280;21187;50.976;13.720;2023-04-27T22:55:55;98550.75;;;9.35;38.17
34983;BME280;21187;50.976;13.720;2023-04-27T23:00:58;98544.56;;;9.34;38.73
34983;BME280;21187;50.976;13.720;2023-04-27T23:05:59;98536.91;;;9.36;38.77
34983;BME280;21187;50.976;13.720;2023-04-27T23:11:01;98548.50;;;9.37;38.40
34983;BME280;21187;50.976;13.720;2023-04-27T23:16:04;98530.41;;;9.37;38.13
34983;BME280;21187;50.976;13.720;2023-04-27T23:21:07;98537.59;;;9.33;38.75
34983;BME280;21187;50.976;13.720;2023-04-27T23:26:15;98524.50;;;9.35;38.49
34983;BME280;21187;50.976;13.720;2023-04-27T23:31:17;98531.25;;;9.29;38.77
34983;BME280;21187;50.976;13.720;2023-04-27T23:36:18;98524.00;;;9.21;39.15
34983;BME280;21187;50.976;13.720;2023-04-27T23:41:20;98515.19;;;9.11;38.84
34983;BME280;21187;50.976;13.720;2023-04-27T23:46:22;98514.66;;;8.97;39.09
34983;BME280;21187;50.976;13.720;2023-04-27T23:51:24;98508.09;;;8.86;39.22
34983;BME280;21187;50.976;13.720;2023-04-27T23:56:26;98504.69;;;8.76;38.99
